createdAt,value
2023-03-22T00:00:35.684Z,65.90
2023-03-22T00:03:27.705Z,62.10
2023-03-22T00:06:04.873Z,67.70
2023-03-22T00:08:41.782Z,62.80
2023-03-22T00:11:18.999Z,65.50
2023-03-22T00:13:55.370Z,69.80
2023-03-22T00:16:31.910Z,67.30
2023-03-22T00:19:08.417Z,67.50
2023-03-22T00:21:44.876Z,70.20
2023-03-22T00:24:21.833Z,68.70
2023-03-22T00:26:58.835Z,64.90
2023-03-22T00:29:35.084Z,63.60
2023-03-22T00:32:12.216Z,66.30
2023-03-22T00:34:49.086Z,73.80
2023-03-22T00:37:27.972Z,65.50
2023-03-22T00:40:04.760Z,64.70
2023-03-22T00:42:42.441Z,66.60
2023-03-22T00:45:19.385Z,68.60
2023-03-22T00:47:56.014Z,60.60
2023-03-22T00:50:32.703Z,68.30
2023-03-22T00:53:09.066Z,73.80
2023-03-22T00:55:45.625Z,74.40
2023-03-22T00:58:22.195Z,69.90
2023-03-22T01:00:58.597Z,73.50
2023-03-22T01:03:38.886Z,75.80
2023-03-22T01:06:16.644Z,70.50
2023-03-22T01:08:55.310Z,81.90
2023-03-22T01:11:31.981Z,95.10
2023-03-22T01:14:09.787Z,86.30
2023-03-22T01:16:46.364Z,100.00
2023-03-22T01:19:23.409Z,99.00
2023-03-22T01:22:00.634Z,104.60
2023-03-22T01:24:37.421Z,96.20
2023-03-22T01:27:13.816Z,102.10
2023-03-22T01:29:50.792Z,162.50
2023-03-22T01:32:27.116Z,135.20
2023-03-22T01:35:03.379Z,93.00
2023-03-22T01:37:39.818Z,109.30
2023-03-22T01:40:19.749Z,144.10
2023-03-22T01:42:57.609Z,129.20
2023-03-22T01:45:46.064Z,145.70
2023-03-22T01:48:31.425Z,117.90
2023-03-22T01:51:15.019Z,108.30
2023-03-22T01:54:36.534Z,128.90
2023-03-22T01:57:19.749Z,108.90
2023-03-22T01:59:56.335Z,131.00
2023-03-22T02:02:52.603Z,131.70
2023-03-22T02:05:38.182Z,160.20
2023-03-22T02:08:15.246Z,119.10
2023-03-22T02:11:22.875Z,115.30
2023-03-22T02:14:34.099Z,115.60
2023-03-22T02:17:51.455Z,162.60
2023-03-22T02:21:31.282Z,145.60
2023-03-22T02:25:24.730Z,188.60
2023-03-22T02:28:36.551Z,117.00
2023-03-22T02:34:57.382Z,73.30
2023-03-22T02:38:18.770Z,102.00
2023-03-22T02:41:04.086Z,115.20
2023-03-22T02:43:52.661Z,117.30
2023-03-22T02:46:40.090Z,163.00
2023-03-22T02:49:32.238Z,154.80
2023-03-22T02:55:05.878Z,214.60
2023-03-22T02:57:54.007Z,122.90
2023-03-22T03:00:32.407Z,165.30
2023-03-22T03:03:15.075Z,138.30
2023-03-22T03:05:58.778Z,106.70
2023-03-22T03:08:36.266Z,120.50
2023-03-22T03:11:14.219Z,148.00
2023-03-22T03:13:52.980Z,123.00
2023-03-22T03:16:36.821Z,106.30
2023-03-22T03:19:27.589Z,106.80
2023-03-22T03:22:18.793Z,115.10
2023-03-22T03:25:03.596Z,116.50
2023-03-22T03:27:49.931Z,102.50
2023-03-22T03:30:39.150Z,160.00
2023-03-22T03:33:25.174Z,159.10
2023-03-22T03:36:08.293Z,92.40
2023-03-22T03:38:52.210Z,116.60
2023-03-22T03:41:33.151Z,106.20
2023-03-22T03:44:10.543Z,141.90
2023-03-22T03:46:49.274Z,111.90
2023-03-22T03:49:27.405Z,160.30
2023-03-22T03:52:05.603Z,155.70
2023-03-22T03:54:42.832Z,104.90
2023-03-22T03:57:23.874Z,131.90
2023-03-22T04:00:00.154Z,127.40
2023-03-22T04:02:55.047Z,120.70
2023-03-22T04:05:56.179Z,127.50
2023-03-22T04:08:33.029Z,103.40
2023-03-22T04:11:10.404Z,121.00
2023-03-22T04:13:48.317Z,119.70
2023-03-22T04:16:26.465Z,124.30
2023-03-22T04:19:03.192Z,109.40
2023-03-22T04:21:39.533Z,128.90
2023-03-22T04:24:17.206Z,128.60
2023-03-22T04:26:54.927Z,111.70
2023-03-22T04:29:36.476Z,105.50
2023-03-22T04:32:27.220Z,95.10
2023-03-22T04:35:05.966Z,98.40
2023-03-22T04:37:43.142Z,83.20
2023-03-22T04:40:26.664Z,86.90
2023-03-22T04:43:13.720Z,98.60
2023-03-22T04:45:58.537Z,92.10
2023-03-22T04:48:42.202Z,85.20
2023-03-22T04:51:20.065Z,77.30
2023-03-22T04:54:43.259Z,122.00
2023-03-22T04:57:19.940Z,99.10
2023-03-22T04:59:57.471Z,128.70
2023-03-22T05:02:33.869Z,123.90
2023-03-22T05:05:12.178Z,89.10
2023-03-22T05:07:49.865Z,140.00
2023-03-22T05:10:26.118Z,130.80
2023-03-22T05:13:02.628Z,138.80
2023-03-22T05:15:49.782Z,119.00
2023-03-22T05:18:28.054Z,128.80
2023-03-22T05:21:11.813Z,159.40
2023-03-22T05:23:51.478Z,131.60
2023-03-22T05:26:30.083Z,105.70
2023-03-22T05:29:06.537Z,113.60
2023-03-22T05:31:55.808Z,119.80
2023-03-22T05:34:35.994Z,118.60
2023-03-22T05:37:23.664Z,119.70
2023-03-22T05:40:05.374Z,108.60
2023-03-22T05:42:45.642Z,88.90
2023-03-22T05:45:29.634Z,90.50
2023-03-22T05:48:18.957Z,66.90
2023-03-22T05:50:55.665Z,97.70
2023-03-22T05:53:33.229Z,120.70
2023-03-22T05:56:24.394Z,173.30
2023-03-22T05:59:04.293Z,102.90
2023-03-22T06:01:41.232Z,149.40
2023-03-22T06:04:27.532Z,100.50
2023-03-22T06:07:06.672Z,119.90
2023-03-22T06:09:52.404Z,74.60
2023-03-22T06:12:31.674Z,71.90
2023-03-22T06:15:25.137Z,74.30
2023-03-22T06:18:16.637Z,67.20
2023-03-22T06:20:55.264Z,91.70
2023-03-22T06:23:33.056Z,96.60
2023-03-22T06:26:11.470Z,65.50
2023-03-22T06:28:48.108Z,66.40
2023-03-22T06:31:24.580Z,54.90
2023-03-22T06:34:12.363Z,74.40
2023-03-22T06:36:51.149Z,64.30
2023-03-22T06:39:42.071Z,94.10
2023-03-22T06:42:18.615Z,69.10
2023-03-22T06:44:56.575Z,73.10
2023-03-22T06:47:39.229Z,63.00
2023-03-22T06:50:40.327Z,65.00
2023-03-22T06:53:21.579Z,69.70
2023-03-22T06:55:58.520Z,59.40
2023-03-22T06:58:35.026Z,59.00
2023-03-22T07:01:11.936Z,59.20
2023-03-22T07:03:48.658Z,80.40
2023-03-22T07:06:26.650Z,71.10
2023-03-22T07:09:04.031Z,58.50
2023-03-22T07:11:43.354Z,56.80
2023-03-22T07:14:19.790Z,58.80
2023-03-22T07:17:16.464Z,57.30
2023-03-22T07:19:53.649Z,59.40
2023-03-22T07:22:32.205Z,58.60
2023-03-22T07:25:11.674Z,50.90
2023-03-22T07:27:48.385Z,50.60
2023-03-22T07:30:25.308Z,50.40
2023-03-22T07:33:01.852Z,46.10
2023-03-22T07:35:39.069Z,51.00
2023-03-22T07:38:15.783Z,50.90
2023-03-22T07:40:55.986Z,46.00
2023-03-22T07:43:47.316Z,50.30
2023-03-22T07:46:47.658Z,49.30
2023-03-22T07:49:33.380Z,45.10
2023-03-22T07:52:16.842Z,45.10
2023-03-22T07:54:53.137Z,41.20
2023-03-22T07:57:29.429Z,43.20
2023-03-22T08:00:12.105Z,39.20
2023-03-22T08:03:03.974Z,40.10
2023-03-22T08:06:08.260Z,42.20
2023-03-22T08:08:44.675Z,53.10
2023-03-22T08:11:21.144Z,42.30
2023-03-22T08:13:57.612Z,41.80
2023-03-22T08:16:34.078Z,40.30
2023-03-22T08:19:11.532Z,40.10
2023-03-22T08:21:48.097Z,38.40
2023-03-22T08:24:36.893Z,39.00
2023-03-22T08:27:16.452Z,39.40
2023-03-22T08:29:59.200Z,39.10
2023-03-22T08:32:37.488Z,47.80
2023-03-22T08:35:16.024Z,37.00
2023-03-22T08:37:56.589Z,44.00
2023-03-22T08:40:36.532Z,41.20
2023-03-22T08:43:13.518Z,37.20
2023-03-22T08:45:50.511Z,41.70
2023-03-22T08:48:30.877Z,41.10
2023-03-22T08:51:23.839Z,36.80
2023-03-22T08:54:10.110Z,39.80
2023-03-22T08:57:39.116Z,37.10
2023-03-22T09:01:03.898Z,36.80
2023-03-22T09:03:46.527Z,39.80
2023-03-22T09:06:23.272Z,37.30
2023-03-22T09:09:00.059Z,37.00
2023-03-22T09:11:37.409Z,37.70
2023-03-22T09:14:15.135Z,35.00
2023-03-22T09:16:52.006Z,42.20
2023-03-22T09:19:28.754Z,40.50
2023-03-22T09:22:05.262Z,36.20
2023-03-22T09:24:49.195Z,37.00
2023-03-22T09:27:25.958Z,36.70
2023-03-22T09:30:02.531Z,32.60
2023-03-22T09:32:41.560Z,30.20
2023-03-22T09:35:19.693Z,29.80
2023-03-22T09:38:06.780Z,31.20
2023-03-22T09:41:00.590Z,32.30
2023-03-22T09:43:43.745Z,32.00
2023-03-22T09:46:31.578Z,28.80
2023-03-22T09:49:15.355Z,33.70
2023-03-22T09:51:54.884Z,28.20
2023-03-22T09:54:39.596Z,29.30
2023-03-22T09:57:30.504Z,27.20
2023-03-22T10:00:23.424Z,28.10
2023-03-22T10:03:21.131Z,26.00
2023-03-22T10:06:07.444Z,27.80
2023-03-22T10:09:00.593Z,28.70
2023-03-22T10:11:48.494Z,22.80
2023-03-22T10:14:39.327Z,19.90
2023-03-22T10:17:25.068Z,22.20
2023-03-22T10:20:09.927Z,25.80
2023-03-22T10:22:51.622Z,24.60
2023-03-22T10:25:38.250Z,27.80
2023-03-22T10:28:28.088Z,25.40
2023-03-22T10:31:06.014Z,22.80
2023-03-22T10:33:50.627Z,21.20
2023-03-22T10:36:35.031Z,21.00
2023-03-22T10:39:24.938Z,20.70
2023-03-22T10:42:06.782Z,17.50
2023-03-22T10:44:51.879Z,20.30
2023-03-22T10:47:41.498Z,20.70
2023-03-22T10:50:28.709Z,25.20
2023-03-22T10:53:12.844Z,32.60
2023-03-22T10:55:49.674Z,21.10
2023-03-22T10:58:32.396Z,20.40
2023-03-22T11:01:14.425Z,21.20
2023-03-22T11:03:57.253Z,17.30
2023-03-22T11:06:39.395Z,18.00
2023-03-22T11:09:23.549Z,14.10
2023-03-22T11:12:02.404Z,17.20
2023-03-22T11:14:45.482Z,19.20
2023-03-22T11:17:27.135Z,22.60
2023-03-22T11:22:48.175Z,19.10
2023-03-22T11:25:32.510Z,16.90
2023-03-22T11:28:23.392Z,12.70
2023-03-22T11:31:11.668Z,15.70
2023-03-22T11:34:02.414Z,10.50
2023-03-22T11:36:54.753Z,10.60
2023-03-22T11:39:37.130Z,10.10
2023-03-22T11:42:23.642Z,22.30
2023-03-22T11:45:00.709Z,13.50
2023-03-22T11:47:41.622Z,10.80
2023-03-22T11:50:33.433Z,13.10
2023-03-22T11:53:17.882Z,9.20
2023-03-22T11:55:58.416Z,11.50
2023-03-22T11:58:55.788Z,13.40
2023-03-22T12:01:45.855Z,13.50
2023-03-22T12:04:30.832Z,14.40
2023-03-22T12:07:15.828Z,12.20
2023-03-22T12:10:01.456Z,12.50
2023-03-22T12:12:45.757Z,11.90
2023-03-22T12:15:28.944Z,12.50
2023-03-22T12:18:13.961Z,11.80
2023-03-22T12:20:57.239Z,16.90
2023-03-22T12:23:36.570Z,18.20
2023-03-22T12:26:21.580Z,16.40
2023-03-22T12:29:03.671Z,14.10
2023-03-22T12:31:52.551Z,18.00
2023-03-22T12:34:41.201Z,15.50
2023-03-22T12:37:28.019Z,12.60
2023-03-22T12:40:19.535Z,12.20
2023-03-22T12:43:11.808Z,11.00
2023-03-22T12:45:54.632Z,12.60
2023-03-22T12:48:40.873Z,12.90
2023-03-22T12:51:18.839Z,17.00
2023-03-22T12:53:59.979Z,14.70
2023-03-22T12:56:44.744Z,13.50
2023-03-22T12:59:28.219Z,13.50
2023-03-22T13:02:18.507Z,13.90
2023-03-22T13:05:01.069Z,53.30
2023-03-22T13:07:58.995Z,14.80
2023-03-22T13:11:05.313Z,12.60
2023-03-22T13:13:50.003Z,10.80
2023-03-22T13:17:00.800Z,14.90
2023-03-22T13:19:52.539Z,11.20
2023-03-22T13:23:11.206Z,13.10
2023-03-22T13:26:06.781Z,10.20
2023-03-22T13:28:44.010Z,13.50
2023-03-22T13:31:45.207Z,11.20
2023-03-22T13:34:33.970Z,12.30
2023-03-22T13:37:31.721Z,11.00
2023-03-22T13:40:25.100Z,12.10
2023-03-22T13:43:24.499Z,12.20
2023-03-22T13:46:50.789Z,10.50
2023-03-22T13:49:59.748Z,15.80
2023-03-22T13:52:45.854Z,10.70
2023-03-22T13:55:58.357Z,11.80
2023-03-22T13:58:56.206Z,13.40
2023-03-22T14:01:39.032Z,10.40
2023-03-22T14:04:22.978Z,12.90
2023-03-22T14:07:19.683Z,12.40
2023-03-22T14:10:01.533Z,11.70
2023-03-22T14:12:55.318Z,10.40
2023-03-22T14:15:37.363Z,8.60
2023-03-22T14:18:25.958Z,7.30
2023-03-22T14:21:09.469Z,7.40
